Terminal Aerodrome Forecast
Issued by NWS Wakefield, VA

Home | Current Version | Previous Version | Text Only | Print | Product List | Glossary On
Versions: 1 2 3 4 5 6 7 8 9 10 11 12 13 14 15 16 17 18 19 20 21 22 23 24 25 26 27 28
000
FTUS41 KAKQ 302333
TAFSBY
TAF
KSBY 302333Z 3100/3124 14006KT 5SM -RA BR OVC035
      TEMPO 3100/3103 1SM RA BR OVC010
     FM310300 00000KT 2SM -DZ BR OVC007
     FM310700 VRB03KT 3/4SM BR OVC004
     FM311500 06004KT P6SM -RA BKN007 BKN035=

USA.gov is the U.S. government's official web portal to all federal, state and local government web resources and services.